sensor_id;sensor_type;location;lat;lon;timestamp;temperature;humidity
44271;DHT22;29963;44.594;11.368;2022-10-22T00:02:22;20.00;99.90
44271;DHT22;29963;44.594;11.368;2022-10-22T00:04:49;20.00;99.90
44271;DHT22;29963;44.594;11.368;2022-10-22T00:07:16;20.10;99.90
44271;DHT22;29963;44.594;11.368;2022-10-22T00:09:42;20.20;99.90
44271;DHT22;29963;44.594;11.368;2022-10-22T00:12:08;20.30;99.90
44271;DHT22;29963;44.594;11.368;2022-10-22T00:14:34;20.40;99.90
44271;DHT22;29963;44.594;11.368;2022-10-22T00:17:00;20.40;99.90
44271;DHT22;29963;44.594;11.368;2022-10-22T00:19:26;20.40;99.90
44271;DHT22;29963;44.594;11.368;2022-10-22T00:21:52;20.40;99.90
44271;DHT22;29963;44.594;11.368;2022-10-22T00:24:18;20.40;99.90
44271;DHT22;29963;44.594;11.368;2022-10-22T00:26:44;20.40;99.90
44271;DHT22;29963;44.594;11.368;2022-10-22T00:29:10;20.40;99.90
44271;DHT22;29963;44.594;11.368;2022-10-22T00:31:35;20.40;99.90
44271;DHT22;29963;44.594;11.368;2022-10-22T00:34:01;20.40;99.90
44271;DHT22;29963;44.594;11.368;2022-10-22T00:36:27;20.30;99.90
44271;DHT22;29963;44.594;11.368;2022-10-22T00:38:52;20.30;99.90
44271;DHT22;29963;44.594;11.368;2022-10-22T00:41:18;20.30;99.90
44271;DHT22;29963;44.594;11.368;2022-10-22T00:43:56;20.30;99.90
44271;DHT22;29963;44.594;11.368;2022-10-22T00:46:22;20.30;99.90
44271;DHT22;29963;44.594;11.368;2022-10-22T00:48:49;20.30;99.90
44271;DHT22;29963;44.594;11.368;2022-10-22T00:51:15;20.30;99.90
44271;DHT22;29963;44.594;11.368;2022-10-22T00:53:46;20.30;99.90
44271;DHT22;29963;44.594;11.368;2022-10-22T00:56:13;20.30;99.90
44271;DHT22;29963;44.594;11.368;2022-10-22T00:58:44;20.30;99.90
44271;DHT22;29963;44.594;11.368;2022-10-22T01:01:14;20.30;99.90
44271;DHT22;29963;44.594;11.368;2022-10-22T01:03:41;20.30;99.90
44271;DHT22;29963;44.594;11.368;2022-10-22T01:06:06;20.30;99.90
44271;DHT22;29963;44.594;11.368;2022-10-22T01:08:45;20.30;99.90
44271;DHT22;29963;44.594;11.368;2022-10-22T01:11:23;20.30;99.90
44271;DHT22;29963;44.594;11.368;2022-10-22T01:16:44;20.30;99.90
44271;DHT22;29963;44.594;11.368;2022-10-22T01:22:36;20.30;99.90
44271;DHT22;29963;44.594;11.368;2022-10-22T01:26:05;20.30;99.90
44271;DHT22;29963;44.594;11.368;2022-10-22T01:28:17;20.40;99.90
44271;DHT22;29963;44.594;11.368;2022-10-22T01:30:48;20.50;99.90
44271;DHT22;29963;44.594;11.368;2022-10-22T01:33:18;20.60;99.90
44271;DHT22;29963;44.594;11.368;2022-10-22T01:35:45;20.60;99.90
44271;DHT22;29963;44.594;11.368;2022-10-22T01:38:17;20.60;99.90
44271;DHT22;29963;44.594;11.368;2022-10-22T01:40:45;20.50;99.90
44271;DHT22;29963;44.594;11.368;2022-10-22T01:43:11;20.50;99.90
44271;DHT22;29963;44.594;11.368;2022-10-22T01:45:51;20.50;99.90
44271;DHT22;29963;44.594;11.368;2022-10-22T01:58:54;20.40;99.90
44271;DHT22;29963;44.594;11.368;2022-10-22T02:04:51;20.60;99.90
44271;DHT22;29963;44.594;11.368;2022-10-22T02:07:13;20.80;99.90
44271;DHT22;29963;44.594;11.368;2022-10-22T02:09:40;20.70;99.90
44271;DHT22;29963;44.594;11.368;2022-10-22T02:12:07;20.70;99.90
44271;DHT22;29963;44.594;11.368;2022-10-22T02:14:35;20.70;99.90
44271;DHT22;29963;44.594;11.368;2022-10-22T02:17:03;20.60;99.90
44271;DHT22;29963;44.594;11.368;2022-10-22T02:19:38;20.60;99.90
44271;DHT22;29963;44.594;11.368;2022-10-22T02:22:08;20.70;99.90
44271;DHT22;29963;44.594;11.368;2022-10-22T02:24:34;20.60;99.90
44271;DHT22;29963;44.594;11.368;2022-10-22T02:27:18;20.60;99.90
44271;DHT22;29963;44.594;11.368;2022-10-22T02:32:40;20.70;99.90
44271;DHT22;29963;44.594;11.368;2022-10-22T02:35:11;20.70;99.90
44271;DHT22;29963;44.594;11.368;2022-10-22T02:37:39;20.60;99.90
44271;DHT22;29963;44.594;11.368;2022-10-22T02:40:05;20.60;99.90
44271;DHT22;29963;44.594;11.368;2022-10-22T02:42:32;20.50;99.90
44271;DHT22;29963;44.594;11.368;2022-10-22T02:44:59;20.50;99.90
44271;DHT22;29963;44.594;11.368;2022-10-22T02:47:25;20.50;99.90
44271;DHT22;29963;44.594;11.368;2022-10-22T02:49:50;20.40;99.90
44271;DHT22;29963;44.594;11.368;2022-10-22T02:52:16;20.40;99.90
44271;DHT22;29963;44.594;11.368;2022-10-22T02:54:41;20.40;99.90
44271;DHT22;29963;44.594;11.368;2022-10-22T02:57:07;20.40;99.90
44271;DHT22;29963;44.594;11.368;2022-10-22T02:59:33;20.40;99.90
44271;DHT22;29963;44.594;11.368;2022-10-22T03:01:59;20.40;99.90
44271;DHT22;29963;44.594;11.368;2022-10-22T03:04:24;20.40;99.90
44271;DHT22;29963;44.594;11.368;2022-10-22T03:06:50;20.40;99.90
44271;DHT22;29963;44.594;11.368;2022-10-22T03:09:16;20.30;99.90
44271;DHT22;29963;44.594;11.368;2022-10-22T03:11:41;20.30;99.90
44271;DHT22;29963;44.594;11.368;2022-10-22T03:14:07;20.30;99.90
44271;DHT22;29963;44.594;11.368;2022-10-22T03:16:33;20.30;99.90
44271;DHT22;29963;44.594;11.368;2022-10-22T03:18:58;20.30;99.90
44271;DHT22;29963;44.594;11.368;2022-10-22T03:21:44;20.30;99.90
44271;DHT22;29963;44.594;11.368;2022-10-22T03:24:21;20.30;99.90
44271;DHT22;29963;44.594;11.368;2022-10-22T03:26:49;20.30;99.90
44271;DHT22;29963;44.594;11.368;2022-10-22T03:29:16;20.30;99.90
44271;DHT22;29963;44.594;11.368;2022-10-22T03:31:42;20.40;99.90
44271;DHT22;29963;44.594;11.368;2022-10-22T03:34:08;20.40;99.90
44271;DHT22;29963;44.594;11.368;2022-10-22T03:36:36;20.60;99.90
44271;DHT22;29963;44.594;11.368;2022-10-22T03:39:03;20.70;99.90
44271;DHT22;29963;44.594;11.368;2022-10-22T03:41:29;20.70;99.90
44271;DHT22;29963;44.594;11.368;2022-10-22T03:43:55;20.70;99.90
44271;DHT22;29963;44.594;11.368;2022-10-22T03:46:22;20.80;99.90
44271;DHT22;29963;44.594;11.368;2022-10-22T03:48:47;20.90;99.90
44271;DHT22;29963;44.594;11.368;2022-10-22T03:51:13;21.00;99.90
44271;DHT22;29963;44.594;11.368;2022-10-22T03:53:39;21.00;99.90
44271;DHT22;29963;44.594;11.368;2022-10-22T03:56:09;21.00;99.90
44271;DHT22;29963;44.594;11.368;2022-10-22T03:58:36;21.00;99.90
44271;DHT22;29963;44.594;11.368;2022-10-22T04:01:06;21.10;99.90
44271;DHT22;29963;44.594;11.368;2022-10-22T04:03:32;21.20;99.90
44271;DHT22;29963;44.594;11.368;2022-10-22T04:06:09;21.20;99.90
44271;DHT22;29963;44.594;11.368;2022-10-22T04:08:35;21.10;99.90
44271;DHT22;29963;44.594;11.368;2022-10-22T04:11:01;21.10;99.90
44271;DHT22;29963;44.594;11.368;2022-10-22T04:13:27;21.10;99.90
44271;DHT22;29963;44.594;11.368;2022-10-22T04:16:08;21.10;99.90
44271;DHT22;29963;44.594;11.368;2022-10-22T04:18:35;21.00;99.90
44271;DHT22;29963;44.594;11.368;2022-10-22T04:21:00;21.00;99.90
44271;DHT22;29963;44.594;11.368;2022-10-22T04:23:26;21.00;99.90
44271;DHT22;29963;44.594;11.368;2022-10-22T04:26:00;20.90;99.90
44271;DHT22;29963;44.594;11.368;2022-10-22T04:28:28;20.90;99.90
44271;DHT22;29963;44.594;11.368;2022-10-22T04:30:54;20.90;99.90
44271;DHT22;29963;44.594;11.368;2022-10-22T04:33:20;20.90;99.90
44271;DHT22;29963;44.594;11.368;2022-10-22T04:35:46;20.90;99.90
44271;DHT22;29963;44.594;11.368;2022-10-22T04:38:11;20.90;99.90
44271;DHT22;29963;44.594;11.368;2022-10-22T04:40:37;20.90;99.90
44271;DHT22;29963;44.594;11.368;2022-10-22T04:43:03;20.80;99.90
44271;DHT22;29963;44.594;11.368;2022-10-22T04:45:29;20.70;99.90
44271;DHT22;29963;44.594;11.368;2022-10-22T04:47:55;20.70;99.90
44271;DHT22;29963;44.594;11.368;2022-10-22T04:50:20;20.70;99.90
44271;DHT22;29963;44.594;11.368;2022-10-22T04:52:46;20.70;99.90
44271;DHT22;29963;44.594;11.368;2022-10-22T04:55:12;20.70;99.90
44271;DHT22;29963;44.594;11.368;2022-10-22T04:57:37;20.70;99.90
44271;DHT22;29963;44.594;11.368;2022-10-22T05:00:04;20.70;99.90
44271;DHT22;29963;44.594;11.368;2022-10-22T05:02:30;20.70;99.90
44271;DHT22;29963;44.594;11.368;2022-10-22T05:04:55;20.70;99.90
44271;DHT22;29963;44.594;11.368;2022-10-22T05:07:21;20.70;99.90
44271;DHT22;29963;44.594;11.368;2022-10-22T05:09:48;20.60;99.90
44271;DHT22;29963;44.594;11.368;2022-10-22T05:12:14;20.60;99.90
44271;DHT22;29963;44.594;11.368;2022-10-22T05:14:40;20.60;99.90
44271;DHT22;29963;44.594;11.368;2022-10-22T05:17:05;20.70;99.90
44271;DHT22;29963;44.594;11.368;2022-10-22T05:19:31;20.80;99.90
44271;DHT22;29963;44.594;11.368;2022-10-22T05:21:59;21.00;99.90
44271;DHT22;29963;44.594;11.368;2022-10-22T05:24:26;21.10;99.90
44271;DHT22;29963;44.594;11.368;2022-10-22T05:26:53;21.20;99.90
44271;DHT22;29963;44.594;11.368;2022-10-22T05:29:19;21.30;99.90
44271;DHT22;29963;44.594;11.368;2022-10-22T05:31:45;21.30;99.90
44271;DHT22;29963;44.594;11.368;2022-10-22T05:34:11;21.30;99.90
44271;DHT22;29963;44.594;11.368;2022-10-22T05:36:37;21.40;99.90
44271;DHT22;29963;44.594;11.368;2022-10-22T05:39:04;21.40;99.90
44271;DHT22;29963;44.594;11.368;2022-10-22T05:41:31;21.40;99.90
44271;DHT22;29963;44.594;11.368;2022-10-22T05:43:58;21.40;99.90
44271;DHT22;29963;44.594;11.368;2022-10-22T05:46:26;21.50;99.90
44271;DHT22;29963;44.594;11.368;2022-10-22T05:48:54;21.50;99.90
44271;DHT22;29963;44.594;11.368;2022-10-22T05:51:21;21.60;99.90
44271;DHT22;29963;44.594;11.368;2022-10-22T05:53:53;21.60;99.90
44271;DHT22;29963;44.594;11.368;2022-10-22T05:56:20;21.60;99.90
44271;DHT22;29963;44.594;11.368;2022-10-22T05:58:46;21.60;99.90
44271;DHT22;29963;44.594;11.368;2022-10-22T06:01:17;21.60;99.90
44271;DHT22;29963;44.594;11.368;2022-10-22T06:03:44;21.60;99.90
44271;DHT22;29963;44.594;11.368;2022-10-22T06:06:17;21.60;99.90
44271;DHT22;29963;44.594;11.368;2022-10-22T06:08:48;21.60;99.90
44271;DHT22;29963;44.594;11.368;2022-10-22T06:11:16;21.60;99.90
44271;DHT22;29963;44.594;11.368;2022-10-22T06:13:43;21.60;99.90
44271;DHT22;29963;44.594;11.368;2022-10-22T06:16:09;21.60;99.90
44271;DHT22;29963;44.594;11.368;2022-10-22T06:18:35;21.60;99.90
44271;DHT22;29963;44.594;11.368;2022-10-22T06:21:13;21.60;99.90
44271;DHT22;29963;44.594;11.368;2022-10-22T06:23:40;21.60;99.90
44271;DHT22;29963;44.594;11.368;2022-10-22T06:26:07;21.60;99.90
44271;DHT22;29963;44.594;11.368;2022-10-22T06:28:33;21.60;99.90
44271;DHT22;29963;44.594;11.368;2022-10-22T06:31:03;21.60;99.90
44271;DHT22;29963;44.594;11.368;2022-10-22T06:33:31;21.60;99.90
44271;DHT22;29963;44.594;11.368;2022-10-22T06:36:05;21.70;99.90
44271;DHT22;29963;44.594;11.368;2022-10-22T06:38:33;21.70;99.90
44271;DHT22;29963;44.594;11.368;2022-10-22T06:41:17;21.70;99.90
44271;DHT22;29963;44.594;11.368;2022-10-22T06:43:44;21.80;99.90
44271;DHT22;29963;44.594;11.368;2022-10-22T06:46:12;21.80;99.90
44271;DHT22;29963;44.594;11.368;2022-10-22T06:48:39;21.90;99.90
44271;DHT22;29963;44.594;11.368;2022-10-22T06:51:07;21.90;99.90
44271;DHT22;29963;44.594;11.368;2022-10-22T06:53:34;21.80;99.90
44271;DHT22;29963;44.594;11.368;2022-10-22T06:56:10;21.80;99.90
44271;DHT22;29963;44.594;11.368;2022-10-22T06:58:36;21.80;99.90
44271;DHT22;29963;44.594;11.368;2022-10-22T07:01:04;21.90;99.90
44271;DHT22;29963;44.594;11.368;2022-10-22T07:03:31;21.90;99.90
44271;DHT22;29963;44.594;11.368;2022-10-22T07:06:01;21.90;99.90
44271;DHT22;29963;44.594;11.368;2022-10-22T07:08:27;21.90;99.90
44271;DHT22;29963;44.594;11.368;2022-10-22T07:10:54;21.90;99.90
44271;DHT22;29963;44.594;11.368;2022-10-22T07:13:20;21.90;99.90
44271;DHT22;29963;44.594;11.368;2022-10-22T07:15:51;22.00;99.90
44271;DHT22;29963;44.594;11.368;2022-10-22T07:18:17;22.00;99.90
44271;DHT22;29963;44.594;11.368;2022-10-22T07:20:43;22.00;99.90
44271;DHT22;29963;44.594;11.368;2022-10-22T07:23:09;22.00;99.90
44271;DHT22;29963;44.594;11.368;2022-10-22T07:25:34;22.00;99.90
44271;DHT22;29963;44.594;11.368;2022-10-22T07:28:00;22.00;99.90
44271;DHT22;29963;44.594;11.368;2022-10-22T07:30:26;22.00;99.90
44271;DHT22;29963;44.594;11.368;2022-10-22T07:32:51;22.00;99.90
44271;DHT22;29963;44.594;11.368;2022-10-22T07:35:17;22.00;99.90
44271;DHT22;29963;44.594;11.368;2022-10-22T07:37:42;22.00;99.90
44271;DHT22;29963;44.594;11.368;2022-10-22T07:40:08;22.10;99.90
44271;DHT22;29963;44.594;11.368;2022-10-22T07:42:34;22.10;99.90
44271;DHT22;29963;44.594;11.368;2022-10-22T07:45:00;22.10;99.90
44271;DHT22;29963;44.594;11.368;2022-10-22T07:47:25;22.10;99.90
44271;DHT22;29963;44.594;11.368;2022-10-22T07:49:51;22.10;99.90
44271;DHT22;29963;44.594;11.368;2022-10-22T07:52:16;22.10;99.90
44271;DHT22;29963;44.594;11.368;2022-10-22T07:54:43;22.20;99.90
44271;DHT22;29963;44.594;11.368;2022-10-22T07:57:08;22.20;99.90
44271;DHT22;29963;44.594;11.368;2022-10-22T07:59:34;22.20;99.90
44271;DHT22;29963;44.594;11.368;2022-10-22T08:01:59;22.20;99.90
44271;DHT22;29963;44.594;11.368;2022-10-22T08:04:25;22.30;99.90
44271;DHT22;29963;44.594;11.368;2022-10-22T08:06:51;22.30;99.90
44271;DHT22;29963;44.594;11.368;2022-10-22T08:09:17;22.40;99.90
44271;DHT22;29963;44.594;11.368;2022-10-22T08:11:42;22.40;99.90
44271;DHT22;29963;44.594;11.368;2022-10-22T08:14:08;22.40;99.90
44271;DHT22;29963;44.594;11.368;2022-10-22T08:16:33;22.40;99.90
44271;DHT22;29963;44.594;11.368;2022-10-22T08:18:59;22.50;99.90
44271;DHT22;29963;44.594;11.368;2022-10-22T08:21:25;22.50;99.90
44271;DHT22;29963;44.594;11.368;2022-10-22T08:23:51;22.50;99.90
44271;DHT22;29963;44.594;11.368;2022-10-22T08:26:16;22.50;99.90
44271;DHT22;29963;44.594;11.368;2022-10-22T08:28:42;22.50;99.90
44271;DHT22;29963;44.594;11.368;2022-10-22T08:31:09;22.60;99.90
44271;DHT22;29963;44.594;11.368;2022-10-22T08:33:35;22.70;99.90
44271;DHT22;29963;44.594;11.368;2022-10-22T08:36:01;22.70;99.90
44271;DHT22;29963;44.594;11.368;2022-10-22T08:38:27;22.70;99.90
44271;DHT22;29963;44.594;11.368;2022-10-22T08:40:55;22.70;99.90
44271;DHT22;29963;44.594;11.368;2022-10-22T08:49:20;22.80;99.90
44271;DHT22;29963;44.594;11.368;2022-10-22T08:51:38;22.80;99.90
44271;DHT22;29963;44.594;11.368;2022-10-22T08:54:36;22.90;99.90
44271;DHT22;29963;44.594;11.368;2022-10-22T08:59:46;22.90;99.90
44271;DHT22;29963;44.594;11.368;2022-10-22T09:05:28;23.00;99.90
44271;DHT22;29963;44.594;11.368;2022-10-22T09:07:57;23.00;99.90
44271;DHT22;29963;44.594;11.368;2022-10-22T09:10:33;23.10;99.90
44271;DHT22;29963;44.594;11.368;2022-10-22T09:13:00;23.10;99.90
44271;DHT22;29963;44.594;11.368;2022-10-22T09:15:25;23.10;99.90
44271;DHT22;29963;44.594;11.368;2022-10-22T09:18:10;23.20;99.90
44271;DHT22;29963;44.594;11.368;2022-10-22T09:20:52;23.20;99.90
44271;DHT22;29963;44.594;11.368;2022-10-22T09:25:48;23.30;99.90
44271;DHT22;29963;44.594;11.368;2022-10-22T09:28:16;23.30;99.90
44271;DHT22;29963;44.594;11.368;2022-10-22T09:30:41;23.30;99.90
44271;DHT22;29963;44.594;11.368;2022-10-22T09:33:26;23.40;99.90
44271;DHT22;29963;44.594;11.368;2022-10-22T09:35:57;23.40;99.90
44271;DHT22;29963;44.594;11.368;2022-10-22T09:38:29;23.50;99.90
44271;DHT22;29963;44.594;11.368;2022-10-22T09:40:56;23.50;99.90
44271;DHT22;29963;44.594;11.368;2022-10-22T09:43:23;23.50;99.90
44271;DHT22;29963;44.594;11.368;2022-10-22T09:45:59;23.60;99.90
44271;DHT22;29963;44.594;11.368;2022-10-22T09:48:31;23.60;99.90
44271;DHT22;29963;44.594;11.368;2022-10-22T09:51:23;23.70;99.90
44271;DHT22;29963;44.594;11.368;2022-10-22T09:54:01;23.70;99.90
44271;DHT22;29963;44.594;11.368;2022-10-22T09:56:35;23.70;99.90
44271;DHT22;29963;44.594;11.368;2022-10-22T09:59:03;23.70;99.90
44271;DHT22;29963;44.594;11.368;2022-10-22T10:01:34;23.80;99.90
44271;DHT22;29963;44.594;11.368;2022-10-22T10:04:12;23.80;99.90
44271;DHT22;29963;44.594;11.368;2022-10-22T10:06:40;23.80;99.90
44271;DHT22;29963;44.594;11.368;2022-10-22T10:09:15;23.80;99.90
44271;DHT22;29963;44.594;11.368;2022-10-22T10:14:42;23.90;99.90
44271;DHT22;29963;44.594;11.368;2022-10-22T10:17:42;23.90;99.90
44271;DHT22;29963;44.594;11.368;2022-10-22T10:20:15;23.90;99.90
44271;DHT22;29963;44.594;11.368;2022-10-22T10:22:58;24.00;99.90
44271;DHT22;29963;44.594;11.368;2022-10-22T10:25:39;24.00;99.90
44271;DHT22;29963;44.594;11.368;2022-10-22T10:30:42;24.10;99.90
44271;DHT22;29963;44.594;11.368;2022-10-22T10:33:17;24.10;99.90
44271;DHT22;29963;44.594;11.368;2022-10-22T10:47:18;24.30;99.90
44271;DHT22;29963;44.594;11.368;2022-10-22T10:49:45;24.40;99.90
44271;DHT22;29963;44.594;11.368;2022-10-22T10:52:36;24.40;99.90
44271;DHT22;29963;44.594;11.368;2022-10-22T10:55:12;24.40;99.90
44271;DHT22;29963;44.594;11.368;2022-10-22T11:00:25;24.50;99.90
44271;DHT22;29963;44.594;11.368;2022-10-22T11:16:04;24.70;99.90
44271;DHT22;29963;44.594;11.368;2022-10-22T11:21:34;25.00;99.90
44271;DHT22;29963;44.594;11.368;2022-10-22T11:26:40;25.10;99.90
44271;DHT22;29963;44.594;11.368;2022-10-22T11:29:09;25.10;99.90
44271;DHT22;29963;44.594;11.368;2022-10-22T11:31:36;25.10;99.90
44271;DHT22;29963;44.594;11.368;2022-10-22T11:34:47;25.20;99.90
44271;DHT22;29963;44.594;11.368;2022-10-22T11:36:47;25.30;99.90
44271;DHT22;29963;44.594;11.368;2022-10-22T11:41:56;25.30;99.90
44271;DHT22;29963;44.594;11.368;2022-10-22T11:44:22;25.30;99.90
44271;DHT22;29963;44.594;11.368;2022-10-22T11:46:57;25.30;99.90
44271;DHT22;29963;44.594;11.368;2022-10-22T11:49:26;25.30;99.90
44271;DHT22;29963;44.594;11.368;2022-10-22T11:52:05;25.30;99.90
44271;DHT22;29963;44.594;11.368;2022-10-22T11:59:40;25.40;99.90
44271;DHT22;29963;44.594;11.368;2022-10-22T12:04:54;25.40;99.90
44271;DHT22;29963;44.594;11.368;2022-10-22T12:08:05;25.50;99.90
44271;DHT22;29963;44.594;11.368;2022-10-22T12:10:18;25.60;99.90
44271;DHT22;29963;44.594;11.368;2022-10-22T12:12:44;25.60;99.90
44271;DHT22;29963;44.594;11.368;2022-10-22T12:15:22;25.60;99.90
44271;DHT22;29963;44.594;11.368;2022-10-22T12:17:48;25.60;99.90
44271;DHT22;29963;44.594;11.368;2022-10-22T12:20:14;25.60;99.90
44271;DHT22;29963;44.594;11.368;2022-10-22T12:22:41;25.50;99.90
44271;DHT22;29963;44.594;11.368;2022-10-22T12:25:21;25.60;99.90
44271;DHT22;29963;44.594;11.368;2022-10-22T12:27:51;25.60;99.90
44271;DHT22;29963;44.594;11.368;2022-10-22T12:30:22;25.70;99.90
44271;DHT22;29963;44.594;11.368;2022-10-22T12:32:51;25.70;99.90
44271;DHT22;29963;44.594;11.368;2022-10-22T12:35:19;25.80;99.90
44271;DHT22;29963;44.594;11.368;2022-10-22T12:37:49;25.90;99.90
44271;DHT22;29963;44.594;11.368;2022-10-22T12:40:22;25.90;99.90
44271;DHT22;29963;44.594;11.368;2022-10-22T12:45:13;25.80;99.90
44271;DHT22;29963;44.594;11.368;2022-10-22T12:47:39;25.90;99.90
44271;DHT22;29963;44.594;11.368;2022-10-22T12:50:13;25.90;99.90
44271;DHT22;29963;44.594;11.368;2022-10-22T12:52:39;25.90;99.90
44271;DHT22;29963;44.594;11.368;2022-10-22T12:55:05;26.00;99.90
44271;DHT22;29963;44.594;11.368;2022-10-22T12:57:34;26.00;99.90
44271;DHT22;29963;44.594;11.368;2022-10-22T13:00:00;26.10;99.90
44271;DHT22;29963;44.594;11.368;2022-10-22T13:02:26;26.30;99.90
44271;DHT22;29963;44.594;11.368;2022-10-22T13:07:37;26.50;99.90
44271;DHT22;29963;44.594;11.368;2022-10-22T13:10:13;26.50;99.90
44271;DHT22;29963;44.594;11.368;2022-10-22T13:12:38;26.50;99.90
44271;DHT22;29963;44.594;11.368;2022-10-22T13:15:18;26.50;99.90
44271;DHT22;29963;44.594;11.368;2022-10-22T13:17:44;26.50;99.90
44271;DHT22;29963;44.594;11.368;2022-10-22T13:20:17;26.60;99.90
44271;DHT22;29963;44.594;11.368;2022-10-22T13:22:59;26.70;99.90
44271;DHT22;29963;44.594;11.368;2022-10-22T13:25:33;26.70;99.90
44271;DHT22;29963;44.594;11.368;2022-10-22T13:28:01;26.60;99.90
44271;DHT22;29963;44.594;11.368;2022-10-22T13:32:57;26.40;99.90
44271;DHT22;29963;44.594;11.368;2022-10-22T13:35:27;26.30;99.90
44271;DHT22;29963;44.594;11.368;2022-10-22T13:37:54;26.20;99.90
44271;DHT22;29963;44.594;11.368;2022-10-22T13:40:20;26.10;99.90
44271;DHT22;29963;44.594;11.368;2022-10-22T13:42:45;26.00;99.90
44271;DHT22;29963;44.594;11.368;2022-10-22T13:45:12;25.90;99.90
44271;DHT22;29963;44.594;11.368;2022-10-22T13:47:38;25.80;99.90
44271;DHT22;29963;44.594;11.368;2022-10-22T13:50:06;25.80;99.90
44271;DHT22;29963;44.594;11.368;2022-10-22T13:55:05;25.60;99.90
44271;DHT22;29963;44.594;11.368;2022-10-22T13:57:36;25.50;99.90
44271;DHT22;29963;44.594;11.368;2022-10-22T14:00:02;25.40;99.90
44271;DHT22;29963;44.594;11.368;2022-10-22T14:02:28;25.30;99.90
44271;DHT22;29963;44.594;11.368;2022-10-22T14:04:53;25.40;99.90
44271;DHT22;29963;44.594;11.368;2022-10-22T14:07:27;25.30;99.90
44271;DHT22;29963;44.594;11.368;2022-10-22T14:09:52;25.30;99.90
44271;DHT22;29963;44.594;11.368;2022-10-22T14:12:18;25.30;99.90
44271;DHT22;29963;44.594;11.368;2022-10-22T14:14:43;25.20;99.90
44271;DHT22;29963;44.594;11.368;2022-10-22T14:17:12;25.20;99.90
44271;DHT22;29963;44.594;11.368;2022-10-22T14:19:44;25.10;99.90
44271;DHT22;29963;44.594;11.368;2022-10-22T14:22:17;25.10;99.90
44271;DHT22;29963;44.594;11.368;2022-10-22T14:24:43;25.00;99.90
44271;DHT22;29963;44.594;11.368;2022-10-22T14:27:12;25.00;99.90
44271;DHT22;29963;44.594;11.368;2022-10-22T14:29:38;24.90;99.90
44271;DHT22;29963;44.594;11.368;2022-10-22T14:32:14;24.90;99.90
44271;DHT22;29963;44.594;11.368;2022-10-22T14:34:40;24.80;99.90
44271;DHT22;29963;44.594;11.368;2022-10-22T14:37:12;24.80;99.90
44271;DHT22;29963;44.594;11.368;2022-10-22T14:39:39;24.70;99.90
44271;DHT22;29963;44.594;11.368;2022-10-22T15:12:35;24.20;99.90
44271;DHT22;29963;44.594;11.368;2022-10-22T15:15:01;24.20;99.90
44271;DHT22;29963;44.594;11.368;2022-10-22T15:17:26;24.10;99.90
44271;DHT22;29963;44.594;11.368;2022-10-22T15:19:52;24.10;99.90
44271;DHT22;29963;44.594;11.368;2022-10-22T15:22:20;24.10;99.90
44271;DHT22;29963;44.594;11.368;2022-10-22T15:24:46;24.10;99.90
44271;DHT22;29963;44.594;11.368;2022-10-22T15:27:13;24.10;99.90
44271;DHT22;29963;44.594;11.368;2022-10-22T15:29:39;24.10;99.90
44271;DHT22;29963;44.594;11.368;2022-10-22T15:32:05;24.10;99.90
44271;DHT22;29963;44.594;11.368;2022-10-22T15:34:37;24.10;99.90
44271;DHT22;29963;44.594;11.368;2022-10-22T15:37:04;24.00;99.90
44271;DHT22;29963;44.594;11.368;2022-10-22T15:42:33;24.00;99.90
44271;DHT22;29963;44.594;11.368;2022-10-22T15:44:59;23.90;99.90
44271;DHT22;29963;44.594;11.368;2022-10-22T15:47:24;23.90;99.90
44271;DHT22;29963;44.594;11.368;2022-10-22T15:49:53;23.80;99.90
44271;DHT22;29963;44.594;11.368;2022-10-22T15:52:18;23.80;99.90
44271;DHT22;29963;44.594;11.368;2022-10-22T15:54:45;23.80;99.90
44271;DHT22;29963;44.594;11.368;2022-10-22T15:57:11;23.80;99.90
44271;DHT22;29963;44.594;11.368;2022-10-22T15:59:36;23.80;99.90
44271;DHT22;29963;44.594;11.368;2022-10-22T16:02:02;23.70;99.90
44271;DHT22;29963;44.594;11.368;2022-10-22T16:04:28;23.80;99.90
44271;DHT22;29963;44.594;11.368;2022-10-22T16:06:53;23.70;99.90
44271;DHT22;29963;44.594;11.368;2022-10-22T16:09:22;23.80;99.90
44271;DHT22;29963;44.594;11.368;2022-10-22T16:11:48;23.80;99.90
44271;DHT22;29963;44.594;11.368;2022-10-22T16:14:15;23.80;99.90
44271;DHT22;29963;44.594;11.368;2022-10-22T16:16:42;23.80;99.90
44271;DHT22;29963;44.594;11.368;2022-10-22T16:19:08;23.80;99.90
44271;DHT22;29963;44.594;11.368;2022-10-22T16:21:34;23.80;99.90
44271;DHT22;29963;44.594;11.368;2022-10-22T16:24:00;23.70;99.90
44271;DHT22;29963;44.594;11.368;2022-10-22T16:26:25;23.60;99.90
44271;DHT22;29963;44.594;11.368;2022-10-22T16:28:51;23.60;99.90
44271;DHT22;29963;44.594;11.368;2022-10-22T16:31:17;23.50;99.90
44271;DHT22;29963;44.594;11.368;2022-10-22T16:33:44;23.50;99.90
44271;DHT22;29963;44.594;11.368;2022-10-22T16:36:13;23.40;99.90
44271;DHT22;29963;44.594;11.368;2022-10-22T16:38:39;23.40;99.90
44271;DHT22;29963;44.594;11.368;2022-10-22T16:41:15;23.40;99.90
44271;DHT22;29963;44.594;11.368;2022-10-22T16:43:41;23.30;99.90
44271;DHT22;29963;44.594;11.368;2022-10-22T16:46:07;23.30;99.90
44271;DHT22;29963;44.594;11.368;2022-10-22T16:48:33;23.30;99.90
44271;DHT22;29963;44.594;11.368;2022-10-22T16:50:58;23.20;99.90
44271;DHT22;29963;44.594;11.368;2022-10-22T16:53:24;23.20;99.90
44271;DHT22;29963;44.594;11.368;2022-10-22T16:55:49;23.20;99.90
44271;DHT22;29963;44.594;11.368;2022-10-22T16:58:15;23.20;99.90
44271;DHT22;29963;44.594;11.368;2022-10-22T17:00:40;23.10;99.90
44271;DHT22;29963;44.594;11.368;2022-10-22T17:03:07;23.10;99.90
44271;DHT22;29963;44.594;11.368;2022-10-22T17:05:36;23.10;99.90
44271;DHT22;29963;44.594;11.368;2022-10-22T17:08:02;23.10;99.90
44271;DHT22;29963;44.594;11.368;2022-10-22T17:10:27;23.10;99.90
44271;DHT22;29963;44.594;11.368;2022-10-22T17:12:53;23.00;99.90
44271;DHT22;29963;44.594;11.368;2022-10-22T17:15:18;23.00;99.90
44271;DHT22;29963;44.594;11.368;2022-10-22T17:17:44;23.00;99.90
44271;DHT22;29963;44.594;11.368;2022-10-22T17:20:12;23.00;99.90
44271;DHT22;29963;44.594;11.368;2022-10-22T17:22:38;22.90;99.90
44271;DHT22;29963;44.594;11.368;2022-10-22T17:27:32;22.90;99.90
44271;DHT22;29963;44.594;11.368;2022-10-22T17:29:58;22.90;99.90
44271;DHT22;29963;44.594;11.368;2022-10-22T17:32:23;22.80;99.90
44271;DHT22;29963;44.594;11.368;2022-10-22T17:34:49;22.80;99.90
44271;DHT22;29963;44.594;11.368;2022-10-22T17:37:14;22.80;99.90